sensor_id;sensor_type;location;lat;lon;timestamp;P1;durP1;ratioP1;P2;durP2;ratioP2
17668;SDS011;8953;48.694;8.940;2023-01-01T00:01:28;53.27;;;46.17;;
17668;SDS011;8953;48.694;8.940;2023-01-01T00:04:05;68.27;;;59.63;;
17668;SDS011;8953;48.694;8.940;2023-01-01T00:06:33;60.43;;;51.37;;
17668;SDS011;8953;48.694;8.940;2023-01-01T00:09:00;53.27;;;46.93;;
17668;SDS011;8953;48.694;8.940;2023-01-01T00:11:45;58.03;;;49.43;;
17668;SDS011;8953;48.694;8.940;2023-01-01T00:14:12;47.80;;;42.57;;
17668;SDS011;8953;48.694;8.940;2023-01-01T00:16:39;56.43;;;47.77;;
17668;SDS011;8953;48.694;8.940;2023-01-01T00:19:08;52.20;;;45.07;;
17668;SDS011;8953;48.694;8.940;2023-01-01T00:21:35;50.97;;;45.00;;
17668;SDS011;8953;48.694;8.940;2023-01-01T00:24:04;51.53;;;43.97;;
17668;SDS011;8953;48.694;8.940;2023-01-01T00:26:31;54.57;;;47.07;;
17668;SDS011;8953;48.694;8.940;2023-01-01T00:28:59;56.00;;;49.50;;
17668;SDS011;8953;48.694;8.940;2023-01-01T00:31:26;56.63;;;50.47;;
17668;SDS011;8953;48.694;8.940;2023-01-01T00:33:53;56.93;;;49.00;;
17668;SDS011;8953;48.694;8.940;2023-01-01T00:36:22;51.73;;;45.37;;
17668;SDS011;8953;48.694;8.940;2023-01-01T00:38:50;49.17;;;40.87;;
17668;SDS011;8953;48.694;8.940;2023-01-01T00:41:18;44.90;;;38.13;;
17668;SDS011;8953;48.694;8.940;2023-01-01T00:43:45;45.17;;;37.40;;
17668;SDS011;8953;48.694;8.940;2023-01-01T00:46:12;41.07;;;35.10;;
17668;SDS011;8953;48.694;8.940;2023-01-01T00:48:40;44.90;;;39.40;;
17668;SDS011;8953;48.694;8.940;2023-01-01T00:51:07;41.73;;;34.53;;
17668;SDS011;8953;48.694;8.940;2023-01-01T00:53:35;41.13;;;34.87;;
17668;SDS011;8953;48.694;8.940;2023-01-01T00:56:03;35.83;;;30.10;;
17668;SDS011;8953;48.694;8.940;2023-01-01T00:58:30;34.87;;;30.53;;
17668;SDS011;8953;48.694;8.940;2023-01-01T01:00:57;36.13;;;29.43;;
17668;SDS011;8953;48.694;8.940;2023-01-01T01:03:24;38.30;;;31.70;;
17668;SDS011;8953;48.694;8.940;2023-01-01T01:05:55;45.33;;;35.10;;
17668;SDS011;8953;48.694;8.940;2023-01-01T01:08:22;45.53;;;35.50;;
17668;SDS011;8953;48.694;8.940;2023-01-01T01:10:51;42.30;;;33.80;;
17668;SDS011;8953;48.694;8.940;2023-01-01T01:13:18;39.37;;;31.37;;
17668;SDS011;8953;48.694;8.940;2023-01-01T01:15:46;33.87;;;27.30;;
17668;SDS011;8953;48.694;8.940;2023-01-01T01:18:13;35.70;;;29.97;;
17668;SDS011;8953;48.694;8.940;2023-01-01T01:20:47;33.43;;;28.73;;
17668;SDS011;8953;48.694;8.940;2023-01-01T01:23:14;40.33;;;31.43;;
17668;SDS011;8953;48.694;8.940;2023-01-01T01:25:42;40.77;;;30.10;;
17668;SDS011;8953;48.694;8.940;2023-01-01T01:28:10;34.83;;;28.97;;
17668;SDS011;8953;48.694;8.940;2023-01-01T01:30:38;37.00;;;28.70;;
17668;SDS011;8953;48.694;8.940;2023-01-01T01:33:05;34.73;;;27.13;;
17668;SDS011;8953;48.694;8.940;2023-01-01T01:35:32;33.63;;;27.93;;
17668;SDS011;8953;48.694;8.940;2023-01-01T01:37:59;36.93;;;27.47;;
17668;SDS011;8953;48.694;8.940;2023-01-01T01:40:26;34.33;;;29.23;;
17668;SDS011;8953;48.694;8.940;2023-01-01T01:42:54;34.00;;;28.50;;
17668;SDS011;8953;48.694;8.940;2023-01-01T01:45:22;31.47;;;28.10;;
17668;SDS011;8953;48.694;8.940;2023-01-01T01:47:50;30.07;;;26.67;;
17668;SDS011;8953;48.694;8.940;2023-01-01T01:50:20;29.57;;;24.10;;
17668;SDS011;8953;48.694;8.940;2023-01-01T01:52:53;28.43;;;23.63;;
17668;SDS011;8953;48.694;8.940;2023-01-01T01:55:24;27.77;;;23.33;;
17668;SDS011;8953;48.694;8.940;2023-01-01T01:57:52;27.70;;;23.63;;
17668;SDS011;8953;48.694;8.940;2023-01-01T02:00:23;27.00;;;23.03;;
17668;SDS011;8953;48.694;8.940;2023-01-01T02:02:52;27.33;;;23.50;;
17668;SDS011;8953;48.694;8.940;2023-01-01T02:05:21;27.20;;;23.83;;
17668;SDS011;8953;48.694;8.940;2023-01-01T02:07:48;27.03;;;22.63;;
17668;SDS011;8953;48.694;8.940;2023-01-01T02:10:17;30.27;;;24.50;;
17668;SDS011;8953;48.694;8.940;2023-01-01T02:12:44;29.73;;;24.40;;
17668;SDS011;8953;48.694;8.940;2023-01-01T02:15:11;28.80;;;23.60;;
17668;SDS011;8953;48.694;8.940;2023-01-01T02:17:43;27.53;;;24.47;;
17668;SDS011;8953;48.694;8.940;2023-01-01T02:20:20;27.53;;;24.20;;
17668;SDS011;8953;48.694;8.940;2023-01-01T02:22:55;29.47;;;23.87;;
17668;SDS011;8953;48.694;8.940;2023-01-01T02:25:46;30.50;;;25.70;;
17668;SDS011;8953;48.694;8.940;2023-01-01T02:28:18;28.17;;;24.63;;
17668;SDS011;8953;48.694;8.940;2023-01-01T02:30:51;28.80;;;23.83;;
17668;SDS011;8953;48.694;8.940;2023-01-01T02:33:20;27.23;;;22.50;;
17668;SDS011;8953;48.694;8.940;2023-01-01T02:35:49;27.70;;;21.37;;
17668;SDS011;8953;48.694;8.940;2023-01-01T02:38:19;21.10;;;17.63;;
17668;SDS011;8953;48.694;8.940;2023-01-01T02:40:48;17.67;;;15.73;;
17668;SDS011;8953;48.694;8.940;2023-01-01T02:43:16;16.70;;;13.97;;
17668;SDS011;8953;48.694;8.940;2023-01-01T02:45:43;17.33;;;13.63;;
17668;SDS011;8953;48.694;8.940;2023-01-01T02:50:54;14.90;;;12.87;;
17668;SDS011;8953;48.694;8.940;2023-01-01T02:53:25;14.10;;;11.80;;
17668;SDS011;8953;48.694;8.940;2023-01-01T02:55:56;14.33;;;11.43;;
17668;SDS011;8953;48.694;8.940;2023-01-01T02:58:28;11.13;;;9.83;;
17668;SDS011;8953;48.694;8.940;2023-01-01T03:01:16;9.13;;;7.90;;
17668;SDS011;8953;48.694;8.940;2023-01-01T03:03:47;10.93;;;8.53;;
17668;SDS011;8953;48.694;8.940;2023-01-01T03:06:22;9.37;;;8.03;;
17668;SDS011;8953;48.694;8.940;2023-01-01T03:08:55;9.13;;;7.37;;
17668;SDS011;8953;48.694;8.940;2023-01-01T03:11:24;7.30;;;5.40;;
17668;SDS011;8953;48.694;8.940;2023-01-01T03:13:57;6.80;;;5.80;;
17668;SDS011;8953;48.694;8.940;2023-01-01T03:16:27;7.80;;;5.57;;
17668;SDS011;8953;48.694;8.940;2023-01-01T03:18:58;7.43;;;5.80;;
17668;SDS011;8953;48.694;8.940;2023-01-01T03:21:39;6.33;;;5.43;;
17668;SDS011;8953;48.694;8.940;2023-01-01T03:24:08;6.30;;;5.67;;
17668;SDS011;8953;48.694;8.940;2023-01-01T03:26:36;8.63;;;5.50;;
17668;SDS011;8953;48.694;8.940;2023-01-01T03:29:07;5.20;;;4.70;;
17668;SDS011;8953;48.694;8.940;2023-01-01T03:31:36;7.30;;;5.27;;
17668;SDS011;8953;48.694;8.940;2023-01-01T03:34:10;6.67;;;5.73;;
17668;SDS011;8953;48.694;8.940;2023-01-01T03:36:40;5.83;;;5.23;;
17668;SDS011;8953;48.694;8.940;2023-01-01T03:39:09;7.03;;;5.60;;
17668;SDS011;8953;48.694;8.940;2023-01-01T03:41:38;7.87;;;5.53;;
17668;SDS011;8953;48.694;8.940;2023-01-01T03:44:08;6.10;;;5.50;;
17668;SDS011;8953;48.694;8.940;2023-01-01T03:46:37;7.43;;;5.50;;
17668;SDS011;8953;48.694;8.940;2023-01-01T03:49:04;7.67;;;6.10;;
17668;SDS011;8953;48.694;8.940;2023-01-01T03:51:37;8.50;;;6.40;;
17668;SDS011;8953;48.694;8.940;2023-01-01T03:54:11;7.33;;;5.87;;
17668;SDS011;8953;48.694;8.940;2023-01-01T03:56:40;9.10;;;6.27;;
17668;SDS011;8953;48.694;8.940;2023-01-01T03:59:11;6.17;;;5.57;;
17668;SDS011;8953;48.694;8.940;2023-01-01T04:01:41;7.07;;;5.83;;
17668;SDS011;8953;48.694;8.940;2023-01-01T04:04:10;8.63;;;6.10;;
17668;SDS011;8953;48.694;8.940;2023-01-01T04:06:39;10.13;;;6.13;;
17668;SDS011;8953;48.694;8.940;2023-01-01T04:09:07;8.77;;;6.10;;
17668;SDS011;8953;48.694;8.940;2023-01-01T04:11:36;7.23;;;5.67;;
17668;SDS011;8953;48.694;8.940;2023-01-01T04:14:27;7.33;;;5.17;;
17668;SDS011;8953;48.694;8.940;2023-01-01T04:16:54;6.03;;;5.30;;
17668;SDS011;8953;48.694;8.940;2023-01-01T04:19:22;8.10;;;5.67;;
17668;SDS011;8953;48.694;8.940;2023-01-01T04:21:49;7.90;;;5.77;;
17668;SDS011;8953;48.694;8.940;2023-01-01T04:24:16;7.20;;;5.07;;
17668;SDS011;8953;48.694;8.940;2023-01-01T04:26:45;8.07;;;5.73;;
17668;SDS011;8953;48.694;8.940;2023-01-01T04:29:12;6.40;;;5.73;;
17668;SDS011;8953;48.694;8.940;2023-01-01T04:31:40;7.03;;;5.13;;
17668;SDS011;8953;48.694;8.940;2023-01-01T04:34:07;7.13;;;5.10;;
17668;SDS011;8953;48.694;8.940;2023-01-01T04:36:34;6.97;;;4.87;;
17668;SDS011;8953;48.694;8.940;2023-01-01T04:39:02;9.27;;;4.87;;
17668;SDS011;8953;48.694;8.940;2023-01-01T04:41:31;6.50;;;4.53;;
17668;SDS011;8953;48.694;8.940;2023-01-01T04:44:00;5.80;;;5.00;;
17668;SDS011;8953;48.694;8.940;2023-01-01T04:46:27;5.87;;;4.40;;
17668;SDS011;8953;48.694;8.940;2023-01-01T04:48:55;6.07;;;4.50;;
17668;SDS011;8953;48.694;8.940;2023-01-01T04:51:22;6.43;;;4.27;;
17668;SDS011;8953;48.694;8.940;2023-01-01T04:53:49;5.17;;;4.67;;
17668;SDS011;8953;48.694;8.940;2023-01-01T04:56:18;8.73;;;5.30;;
17668;SDS011;8953;48.694;8.940;2023-01-01T04:58:45;6.13;;;4.97;;
17668;SDS011;8953;48.694;8.940;2023-01-01T05:01:14;5.83;;;5.23;;
17668;SDS011;8953;48.694;8.940;2023-01-01T05:03:42;6.27;;;4.57;;
17668;SDS011;8953;48.694;8.940;2023-01-01T05:06:10;7.13;;;6.17;;
17668;SDS011;8953;48.694;8.940;2023-01-01T05:08:38;6.83;;;5.77;;
17668;SDS011;8953;48.694;8.940;2023-01-01T05:11:06;8.30;;;5.97;;
17668;SDS011;8953;48.694;8.940;2023-01-01T05:13:33;6.80;;;5.60;;
17668;SDS011;8953;48.694;8.940;2023-01-01T05:16:01;6.77;;;4.53;;
17668;SDS011;8953;48.694;8.940;2023-01-01T05:18:30;5.07;;;4.50;;
17668;SDS011;8953;48.694;8.940;2023-01-01T05:20:58;7.57;;;4.60;;
17668;SDS011;8953;48.694;8.940;2023-01-01T05:23:26;6.37;;;4.27;;
17668;SDS011;8953;48.694;8.940;2023-01-01T05:25:53;5.40;;;4.03;;
17668;SDS011;8953;48.694;8.940;2023-01-01T05:28:20;5.10;;;4.00;;
17668;SDS011;8953;48.694;8.940;2023-01-01T05:30:48;5.43;;;4.27;;
17668;SDS011;8953;48.694;8.940;2023-01-01T05:33:15;4.87;;;3.73;;
17668;SDS011;8953;48.694;8.940;2023-01-01T05:35:43;4.17;;;3.73;;
17668;SDS011;8953;48.694;8.940;2023-01-01T05:38:11;4.50;;;3.77;;
17668;SDS011;8953;48.694;8.940;2023-01-01T05:40:38;5.57;;;3.77;;
17668;SDS011;8953;48.694;8.940;2023-01-01T05:43:05;4.03;;;3.60;;
17668;SDS011;8953;48.694;8.940;2023-01-01T05:45:32;4.93;;;3.67;;
17668;SDS011;8953;48.694;8.940;2023-01-01T05:47:59;4.57;;;3.87;;
17668;SDS011;8953;48.694;8.940;2023-01-01T05:50:28;4.47;;;3.33;;
17668;SDS011;8953;48.694;8.940;2023-01-01T05:52:56;4.97;;;3.53;;
17668;SDS011;8953;48.694;8.940;2023-01-01T05:55:24;5.03;;;3.77;;
17668;SDS011;8953;48.694;8.940;2023-01-01T05:57:51;6.40;;;3.67;;
17668;SDS011;8953;48.694;8.940;2023-01-01T06:00:18;4.60;;;3.63;;
17668;SDS011;8953;48.694;8.940;2023-01-01T06:02:46;5.27;;;3.40;;
17668;SDS011;8953;48.694;8.940;2023-01-01T06:05:15;3.50;;;3.20;;
17668;SDS011;8953;48.694;8.940;2023-01-01T06:07:42;4.53;;;3.13;;
17668;SDS011;8953;48.694;8.940;2023-01-01T06:10:11;4.07;;;2.97;;
17668;SDS011;8953;48.694;8.940;2023-01-01T06:12:38;5.17;;;3.43;;
17668;SDS011;8953;48.694;8.940;2023-01-01T06:15:06;4.37;;;3.20;;
17668;SDS011;8953;48.694;8.940;2023-01-01T06:17:34;4.57;;;3.13;;
17668;SDS011;8953;48.694;8.940;2023-01-01T06:20:01;5.70;;;3.77;;
17668;SDS011;8953;48.694;8.940;2023-01-01T06:22:28;5.10;;;2.97;;
17668;SDS011;8953;48.694;8.940;2023-01-01T06:24:55;4.83;;;3.60;;
17668;SDS011;8953;48.694;8.940;2023-01-01T06:27:24;5.43;;;3.57;;
17668;SDS011;8953;48.694;8.940;2023-01-01T06:29:51;4.63;;;3.37;;
17668;SDS011;8953;48.694;8.940;2023-01-01T06:32:18;4.73;;;3.63;;
17668;SDS011;8953;48.694;8.940;2023-01-01T06:34:45;6.20;;;3.43;;
17668;SDS011;8953;48.694;8.940;2023-01-01T06:37:12;4.33;;;3.30;;
17668;SDS011;8953;48.694;8.940;2023-01-01T06:39:40;6.53;;;3.97;;
17668;SDS011;8953;48.694;8.940;2023-01-01T06:42:07;4.57;;;3.60;;
17668;SDS011;8953;48.694;8.940;2023-01-01T06:44:35;4.67;;;4.10;;
17668;SDS011;8953;48.694;8.940;2023-01-01T06:47:03;4.40;;;3.87;;
17668;SDS011;8953;48.694;8.940;2023-01-01T06:49:30;4.73;;;3.33;;
17668;SDS011;8953;48.694;8.940;2023-01-01T06:51:57;4.30;;;3.47;;
17668;SDS011;8953;48.694;8.940;2023-01-01T06:54:24;4.40;;;3.40;;
17668;SDS011;8953;48.694;8.940;2023-01-01T06:56:51;5.10;;;3.30;;
17668;SDS011;8953;48.694;8.940;2023-01-01T06:59:19;4.10;;;3.67;;
17668;SDS011;8953;48.694;8.940;2023-01-01T07:01:47;6.10;;;3.77;;
17668;SDS011;8953;48.694;8.940;2023-01-01T07:04:15;3.90;;;3.40;;
17668;SDS011;8953;48.694;8.940;2023-01-01T07:06:42;3.40;;;3.10;;
17668;SDS011;8953;48.694;8.940;2023-01-01T07:09:09;3.60;;;3.30;;
17668;SDS011;8953;48.694;8.940;2023-01-01T07:11:36;5.70;;;3.67;;
17668;SDS011;8953;48.694;8.940;2023-01-01T07:14:04;4.57;;;3.50;;
17668;SDS011;8953;48.694;8.940;2023-01-01T07:16:31;9.40;;;3.20;;
17668;SDS011;8953;48.694;8.940;2023-01-01T07:18:59;4.97;;;3.37;;
17668;SDS011;8953;48.694;8.940;2023-01-01T07:21:28;4.53;;;3.43;;
17668;SDS011;8953;48.694;8.940;2023-01-01T07:23:56;4.43;;;3.27;;
17668;SDS011;8953;48.694;8.940;2023-01-01T07:26:23;4.17;;;3.30;;
17668;SDS011;8953;48.694;8.940;2023-01-01T07:28:50;5.30;;;3.57;;
17668;SDS011;8953;48.694;8.940;2023-01-01T07:31:18;4.93;;;4.00;;
17668;SDS011;8953;48.694;8.940;2023-01-01T07:33:45;4.10;;;3.70;;
17668;SDS011;8953;48.694;8.940;2023-01-01T07:36:14;5.93;;;3.50;;
17668;SDS011;8953;48.694;8.940;2023-01-01T07:38:41;5.43;;;3.60;;
17668;SDS011;8953;48.694;8.940;2023-01-01T07:41:08;5.07;;;3.53;;
17668;SDS011;8953;48.694;8.940;2023-01-01T07:43:36;5.63;;;3.87;;
17668;SDS011;8953;48.694;8.940;2023-01-01T07:46:03;4.33;;;3.57;;
17668;SDS011;8953;48.694;8.940;2023-01-01T07:48:30;4.40;;;3.80;;
17668;SDS011;8953;48.694;8.940;2023-01-01T07:50:58;5.80;;;4.13;;
17668;SDS011;8953;48.694;8.940;2023-01-01T07:53:26;4.40;;;3.67;;
17668;SDS011;8953;48.694;8.940;2023-01-01T07:55:53;4.80;;;3.50;;
17668;SDS011;8953;48.694;8.940;2023-01-01T07:58:20;4.97;;;4.23;;
17668;SDS011;8953;48.694;8.940;2023-01-01T08:00:48;4.90;;;3.70;;
17668;SDS011;8953;48.694;8.940;2023-01-01T08:03:15;4.33;;;3.90;;
17668;SDS011;8953;48.694;8.940;2023-01-01T08:05:42;5.07;;;3.73;;
17668;SDS011;8953;48.694;8.940;2023-01-01T08:08:10;5.77;;;4.00;;
17668;SDS011;8953;48.694;8.940;2023-01-01T08:10:38;5.90;;;3.90;;
17668;SDS011;8953;48.694;8.940;2023-01-01T08:13:06;7.57;;;3.73;;
17668;SDS011;8953;48.694;8.940;2023-01-01T08:15:33;7.83;;;4.63;;
17668;SDS011;8953;48.694;8.940;2023-01-01T08:18:02;5.57;;;4.07;;
17668;SDS011;8953;48.694;8.940;2023-01-01T08:20:29;5.27;;;4.60;;
17668;SDS011;8953;48.694;8.940;2023-01-01T08:22:57;4.90;;;4.10;;
17668;SDS011;8953;48.694;8.940;2023-01-01T08:25:24;5.67;;;4.10;;
17668;SDS011;8953;48.694;8.940;2023-01-01T08:27:53;5.73;;;4.60;;
17668;SDS011;8953;48.694;8.940;2023-01-01T08:30:20;5.57;;;4.47;;
17668;SDS011;8953;48.694;8.940;2023-01-01T08:32:47;4.93;;;4.43;;
17668;SDS011;8953;48.694;8.940;2023-01-01T08:35:15;4.93;;;4.40;;
17668;SDS011;8953;48.694;8.940;2023-01-01T08:37:43;7.17;;;4.87;;
17668;SDS011;8953;48.694;8.940;2023-01-01T08:40:10;5.13;;;4.60;;
17668;SDS011;8953;48.694;8.940;2023-01-01T08:42:38;6.60;;;4.80;;
17668;SDS011;8953;48.694;8.940;2023-01-01T08:45:07;5.83;;;4.60;;
17668;SDS011;8953;48.694;8.940;2023-01-01T08:47:37;6.43;;;4.77;;
17668;SDS011;8953;48.694;8.940;2023-01-01T08:50:05;5.73;;;4.70;;
17668;SDS011;8953;48.694;8.940;2023-01-01T08:52:32;6.00;;;4.83;;
17668;SDS011;8953;48.694;8.940;2023-01-01T08:54:59;5.23;;;4.73;;
17668;SDS011;8953;48.694;8.940;2023-01-01T08:57:28;5.00;;;4.50;;
17668;SDS011;8953;48.694;8.940;2023-01-01T08:59:56;6.37;;;4.77;;
17668;SDS011;8953;48.694;8.940;2023-01-01T09:02:27;6.17;;;4.83;;
17668;SDS011;8953;48.694;8.940;2023-01-01T09:04:54;6.33;;;4.50;;
17668;SDS011;8953;48.694;8.940;2023-01-01T09:07:21;7.70;;;5.37;;
17668;SDS011;8953;48.694;8.940;2023-01-01T09:09:48;7.23;;;4.90;;
17668;SDS011;8953;48.694;8.940;2023-01-01T09:12:16;9.20;;;5.70;;
17668;SDS011;8953;48.694;8.940;2023-01-01T09:14:45;6.80;;;5.83;;
17668;SDS011;8953;48.694;8.940;2023-01-01T09:17:13;5.80;;;5.00;;
17668;SDS011;8953;48.694;8.940;2023-01-01T09:19:41;8.23;;;5.97;;
17668;SDS011;8953;48.694;8.940;2023-01-01T09:22:08;5.60;;;5.00;;
17668;SDS011;8953;48.694;8.940;2023-01-01T09:24:36;6.70;;;5.20;;
17668;SDS011;8953;48.694;8.940;2023-01-01T09:27:03;7.20;;;5.20;;
17668;SDS011;8953;48.694;8.940;2023-01-01T09:29:30;6.33;;;5.20;;
17668;SDS011;8953;48.694;8.940;2023-01-01T09:31:58;6.13;;;5.53;;
17668;SDS011;8953;48.694;8.940;2023-01-01T09:34:25;6.10;;;5.27;;
17668;SDS011;8953;48.694;8.940;2023-01-01T09:36:53;7.33;;;6.03;;
17668;SDS011;8953;48.694;8.940;2023-01-01T09:39:21;6.87;;;5.57;;
17668;SDS011;8953;48.694;8.940;2023-01-01T09:41:51;6.77;;;5.30;;
17668;SDS011;8953;48.694;8.940;2023-01-01T09:44:26;5.67;;;5.07;;
17668;SDS011;8953;48.694;8.940;2023-01-01T09:46:57;8.53;;;5.63;;
17668;SDS011;8953;48.694;8.940;2023-01-01T09:49:28;6.70;;;5.63;;
17668;SDS011;8953;48.694;8.940;2023-01-01T09:51:59;5.57;;;4.77;;
17668;SDS011;8953;48.694;8.940;2023-01-01T09:54:30;8.17;;;5.40;;
17668;SDS011;8953;48.694;8.940;2023-01-01T09:56:59;7.63;;;5.40;;
17668;SDS011;8953;48.694;8.940;2023-01-01T09:59:28;6.43;;;5.70;;
17668;SDS011;8953;48.694;8.940;2023-01-01T10:01:56;6.93;;;5.90;;
17668;SDS011;8953;48.694;8.940;2023-01-01T10:04:28;7.93;;;5.93;;
17668;SDS011;8953;48.694;8.940;2023-01-01T10:07:02;7.47;;;5.17;;
17668;SDS011;8953;48.694;8.940;2023-01-01T10:09:34;7.20;;;6.13;;
17668;SDS011;8953;48.694;8.940;2023-01-01T10:12:05;9.30;;;6.37;;
17668;SDS011;8953;48.694;8.940;2023-01-01T10:14:38;6.33;;;5.20;;
17668;SDS011;8953;48.694;8.940;2023-01-01T10:17:09;7.20;;;5.60;;
17668;SDS011;8953;48.694;8.940;2023-01-01T10:19:38;8.83;;;5.73;;
17668;SDS011;8953;48.694;8.940;2023-01-01T10:22:10;5.97;;;5.10;;
17668;SDS011;8953;48.694;8.940;2023-01-01T10:24:41;6.40;;;5.30;;
17668;SDS011;8953;48.694;8.940;2023-01-01T10:27:19;5.07;;;4.57;;
17668;SDS011;8953;48.694;8.940;2023-01-01T10:29:49;7.17;;;5.17;;
17668;SDS011;8953;48.694;8.940;2023-01-01T10:32:18;6.00;;;5.20;;
17668;SDS011;8953;48.694;8.940;2023-01-01T10:34:45;6.90;;;5.03;;
17668;SDS011;8953;48.694;8.940;2023-01-01T10:37:14;6.17;;;4.63;;
17668;SDS011;8953;48.694;8.940;2023-01-01T10:39:42;5.10;;;4.60;;
17668;SDS011;8953;48.694;8.940;2023-01-01T10:42:11;5.80;;;4.63;;
17668;SDS011;8953;48.694;8.940;2023-01-01T10:44:38;5.83;;;5.00;;
17668;SDS011;8953;48.694;8.940;2023-01-01T10:47:12;7.10;;;4.83;;
17668;SDS011;8953;48.694;8.940;2023-01-01T10:49:50;5.60;;;4.30;;
17668;SDS011;8953;48.694;8.940;2023-01-01T10:52:21;4.83;;;4.33;;
17668;SDS011;8953;48.694;8.940;2023-01-01T10:54:50;4.43;;;4.03;;
17668;SDS011;8953;48.694;8.940;2023-01-01T10:57:19;5.20;;;4.70;;
17668;SDS011;8953;48.694;8.940;2023-01-01T10:59:48;5.03;;;4.37;;
17668;SDS011;8953;48.694;8.940;2023-01-01T11:02:17;5.93;;;4.47;;
17668;SDS011;8953;48.694;8.940;2023-01-01T11:04:44;5.30;;;4.80;;
17668;SDS011;8953;48.694;8.940;2023-01-01T11:09:59;7.70;;;4.50;;
17668;SDS011;8953;48.694;8.940;2023-01-01T11:12:29;5.20;;;4.00;;
17668;SDS011;8953;48.694;8.940;2023-01-01T11:14:57;4.90;;;4.13;;
17668;SDS011;8953;48.694;8.940;2023-01-01T11:17:25;4.93;;;4.33;;
17668;SDS011;8953;48.694;8.940;2023-01-01T11:19:53;7.87;;;4.93;;
17668;SDS011;8953;48.694;8.940;2023-01-01T11:22:34;5.30;;;3.87;;
17668;SDS011;8953;48.694;8.940;2023-01-01T11:25:04;4.83;;;4.13;;
17668;SDS011;8953;48.694;8.940;2023-01-01T11:27:41;4.80;;;3.70;;
17668;SDS011;8953;48.694;8.940;2023-01-01T11:30:19;5.07;;;3.60;;
17668;SDS011;8953;48.694;8.940;2023-01-01T11:32:57;5.60;;;3.73;;
17668;SDS011;8953;48.694;8.940;2023-01-01T11:35:27;5.57;;;3.90;;
17668;SDS011;8953;48.694;8.940;2023-01-01T11:37:56;5.50;;;3.43;;
17668;SDS011;8953;48.694;8.940;2023-01-01T11:40:26;5.10;;;3.70;;
17668;SDS011;8953;48.694;8.940;2023-01-01T11:42:59;5.70;;;3.73;;
17668;SDS011;8953;48.694;8.940;2023-01-01T11:45:30;6.33;;;3.73;;
17668;SDS011;8953;48.694;8.940;2023-01-01T11:48:00;3.93;;;3.37;;
17668;SDS011;8953;48.694;8.940;2023-01-01T11:50:31;6.23;;;3.97;;
17668;SDS011;8953;48.694;8.940;2023-01-01T11:53:15;5.60;;;3.80;;
17668;SDS011;8953;48.694;8.940;2023-01-01T11:55:46;4.67;;;3.83;;
17668;SDS011;8953;48.694;8.940;2023-01-01T11:58:16;4.40;;;3.77;;
17668;SDS011;8953;48.694;8.940;2023-01-01T12:00:49;5.47;;;3.73;;
17668;SDS011;8953;48.694;8.940;2023-01-01T12:03:21;5.70;;;3.43;;
17668;SDS011;8953;48.694;8.940;2023-01-01T12:05:51;6.07;;;3.30;;
17668;SDS011;8953;48.694;8.940;2023-01-01T12:08:25;4.10;;;3.20;;
17668;SDS011;8953;48.694;8.940;2023-01-01T12:10:57;3.83;;;2.87;;
17668;SDS011;8953;48.694;8.940;2023-01-01T12:13:29;4.57;;;3.10;;
17668;SDS011;8953;48.694;8.940;2023-01-01T12:16:01;5.00;;;3.57;;
17668;SDS011;8953;48.694;8.940;2023-01-01T12:18:36;4.37;;;2.80;;
17668;SDS011;8953;48.694;8.940;2023-01-01T12:21:10;3.30;;;3.00;;
17668;SDS011;8953;48.694;8.940;2023-01-01T12:23:40;4.70;;;2.93;;
17668;SDS011;8953;48.694;8.940;2023-01-01T12:26:12;4.63;;;2.93;;
17668;SDS011;8953;48.694;8.940;2023-01-01T12:28:42;5.33;;;2.67;;
17668;SDS011;8953;48.694;8.940;2023-01-01T12:31:17;3.60;;;2.70;;
17668;SDS011;8953;48.694;8.940;2023-01-01T12:33:52;3.67;;;3.00;;
17668;SDS011;8953;48.694;8.940;2023-01-01T12:36:27;4.20;;;2.33;;
17668;SDS011;8953;48.694;8.940;2023-01-01T12:41:53;6.80;;;4.87;;
17668;SDS011;8953;48.694;8.940;2023-01-01T12:44:24;5.83;;;3.53;;
17668;SDS011;8953;48.694;8.940;2023-01-01T12:46:55;3.50;;;2.37;;
17668;SDS011;8953;48.694;8.940;2023-01-01T12:49:42;4.23;;;3.20;;
17668;SDS011;8953;48.694;8.940;2023-01-01T12:52:17;5.13;;;3.40;;
17668;SDS011;8953;48.694;8.940;2023-01-01T12:57:54;3.73;;;2.27;;
17668;SDS011;8953;48.694;8.940;2023-01-01T13:00:27;3.77;;;2.40;;
17668;SDS011;8953;48.694;8.940;2023-01-01T13:02:55;4.13;;;2.40;;
17668;SDS011;8953;48.694;8.940;2023-01-01T13:05:25;3.23;;;2.40;;
17668;SDS011;8953;48.694;8.940;2023-01-01T13:07:55;7.10;;;2.47;;
17668;SDS011;8953;48.694;8.940;2023-01-01T13:10:25;3.93;;;2.27;;
17668;SDS011;8953;48.694;8.940;2023-01-01T13:12:54;5.70;;;2.53;;
17668;SDS011;8953;48.694;8.940;2023-01-01T13:15:45;5.50;;;2.50;;
17668;SDS011;8953;48.694;8.940;2023-01-01T13:18:23;4.07;;;2.47;;
17668;SDS011;8953;48.694;8.940;2023-01-01T13:20:55;3.97;;;2.47;;
17668;SDS011;8953;48.694;8.940;2023-01-01T13:23:41;5.60;;;2.53;;
17668;SDS011;8953;48.694;8.940;2023-01-01T13:32:04;3.87;;;2.30;;
17668;SDS011;8953;48.694;8.940;2023-01-01T13:34:39;3.07;;;2.20;;
17668;SDS011;8953;48.694;8.940;2023-01-01T13:37:27;5.60;;;2.50;;
17668;SDS011;8953;48.694;8.940;2023-01-01T13:39:55;3.30;;;2.00;;
17668;SDS011;8953;48.694;8.940;2023-01-01T13:42:39;5.17;;;2.43;;
17668;SDS011;8953;48.694;8.940;2023-01-01T13:45:10;5.73;;;3.00;;
17668;SDS011;8953;48.694;8.940;2023-01-01T13:47:44;6.67;;;2.50;;
17668;SDS011;8953;48.694;8.940;2023-01-01T13:50:17;5.17;;;2.20;;
17668;SDS011;8953;48.694;8.940;2023-01-01T13:52:54;5.20;;;2.27;;
17668;SDS011;8953;48.694;8.940;2023-01-01T14:03:37;4.33;;;2.37;;
17668;SDS011;8953;48.694;8.940;2023-01-01T14:06:08;4.13;;;2.30;;
17668;SDS011;8953;48.694;8.940;2023-01-01T14:08:37;4.67;;;2.50;;
17668;SDS011;8953;48.694;8.940;2023-01-01T14:11:17;3.27;;;2.03;;
17668;SDS011;8953;48.694;8.940;2023-01-01T14:13:44;2.67;;;2.03;;
17668;SDS011;8953;48.694;8.940;2023-01-01T14:16:12;5.27;;;2.30;;
17668;SDS011;8953;48.694;8.940;2023-01-01T14:18:42;4.03;;;2.10;;
17668;SDS011;8953;48.694;8.940;2023-01-01T14:21:13;4.17;;;1.70;;
17668;SDS011;8953;48.694;8.940;2023-01-01T14:23:41;5.63;;;2.43;;
17668;SDS011;8953;48.694;8.940;2023-01-01T14:26:11;2.87;;;2.00;;
17668;SDS011;8953;48.694;8.940;2023-01-01T14:28:41;4.83;;;2.00;;
17668;SDS011;8953;48.694;8.940;2023-01-01T14:31:10;5.40;;;2.70;;
17668;SDS011;8953;48.694;8.940;2023-01-01T14:33:38;4.17;;;2.57;;
17668;SDS011;8953;48.694;8.940;2023-01-01T14:36:13;8.13;;;3.17;;
17668;SDS011;8953;48.694;8.940;2023-01-01T14:38:47;6.10;;;3.10;;
17668;SDS011;8953;48.694;8.940;2023-01-01T14:41:19;6.70;;;3.20;;
17668;SDS011;8953;48.694;8.940;2023-01-01T14:43:51;5.47;;;3.10;;
17668;SDS011;8953;48.694;8.940;2023-01-01T14:46:19;5.53;;;3.10;;
17668;SDS011;8953;48.694;8.940;2023-01-01T14:48:48;4.43;;;2.93;;
17668;SDS011;8953;48.694;8.940;2023-01-01T14:51:19;5.40;;;2.57;;
17668;SDS011;8953;48.694;8.940;2023-01-01T14:53:47;3.87;;;2.20;;
17668;SDS011;8953;48.694;8.940;2023-01-01T14:56:20;6.00;;;2.20;;
17668;SDS011;8953;48.694;8.940;2023-01-01T14:58:52;3.40;;;2.30;;
17668;SDS011;8953;48.694;8.940;2023-01-01T15:01:21;6.77;;;2.30;;
17668;SDS011;8953;48.694;8.940;2023-01-01T15:03:56;5.20;;;2.40;;
17668;SDS011;8953;48.694;8.940;2023-01-01T15:06:25;4.33;;;2.47;;
17668;SDS011;8953;48.694;8.940;2023-01-01T15:08:52;5.43;;;2.40;;
17668;SDS011;8953;48.694;8.940;2023-01-01T15:11:19;5.30;;;2.87;;
17668;SDS011;8953;48.694;8.940;2023-01-01T15:13:54;5.17;;;2.60;;
17668;SDS011;8953;48.694;8.940;2023-01-01T15:16:23;6.10;;;4.17;;
17668;SDS011;8953;48.694;8.940;2023-01-01T15:18:51;9.67;;;5.73;;
17668;SDS011;8953;48.694;8.940;2023-01-01T15:21:30;15.73;;;4.10;;
17668;SDS011;8953;48.694;8.940;2023-01-01T15:24:01;6.43;;;3.97;;
17668;SDS011;8953;48.694;8.940;2023-01-01T15:26:30;6.77;;;3.17;;
17668;SDS011;8953;48.694;8.940;2023-01-01T15:28:58;4.77;;;2.87;;
17668;SDS011;8953;48.694;8.940;2023-01-01T15:31:32;6.90;;;3.03;;
17668;SDS011;8953;48.694;8.940;2023-01-01T15:34:00;3.83;;;2.50;;
17668;SDS011;8953;48.694;8.940;2023-01-01T15:36:29;5.20;;;2.77;;